Time;durP1;ratioP1;P1;durP2;ratioP2;P2;SDS_P1;SDS_P2;PMS_P1;PMS_P2;Temp;Humidity;BMP_temperature;BMP_pressure;BME280_temperature;BME280_humidity;BME280_pressure;Samples;Min_cycle;Max_cycle;Signal;HPM_P1;HPM_P2
2022/04/28 00:02:12;;;;;;;;;46.50;38.00;13.70;99.90;;;;;;4687269;30;8843;-61
2022/04/28 00:04:38;;;;;;;;;39.67;33.67;14.00;99.90;;;;;;4687304;30;8831;-62
2022/04/28 00:07:04;;;;;;;;;42.75;35.25;14.00;99.90;;;;;;4687273;30;8868;-62
2022/04/28 00:09:30;;;;;;;;;39.50;34.75;13.90;99.90;;;;;;4686962;30;8848;-61
2022/04/28 00:11:56;;;;;;;;;34.67;32.67;13.50;99.90;;;;;;4687251;30;8832;-62
2022/04/28 00:14:22;;;;;;;;;35.00;33.00;13.00;99.90;;;;;;4686797;30;8887;-62
2022/04/28 00:16:47;;;;;;;;;40.50;36.25;13.30;99.90;;;;;;4687106;30;8820;-61
2022/04/28 00:19:13;;;;;;;;;39.75;35.50;13.40;99.90;;;;;;4686807;30;8852;-62
2022/04/28 00:21:39;;;;;;;;;37.75;33.50;13.70;99.90;;;;;;4687035;30;8899;-62
2022/04/28 00:24:05;;;;;;;;;36.00;34.00;13.30;99.90;;;;;;4687069;30;8835;-62
2022/04/28 00:26:31;;;;;;;;;39.00;34.00;13.20;99.90;;;;;;4686712;30;8839;-62
2022/04/28 00:28:57;;;;;;;;;37.67;35.00;12.80;99.90;;;;;;4686913;30;8832;-62
2022/04/28 00:31:22;;;;;;;;;33.00;29.67;12.60;99.90;;;;;;4686599;30;8880;-60
2022/04/28 00:33:48;;;;;;;;;36.00;32.50;12.70;99.90;;;;;;4686503;30;8855;-64
2022/04/28 00:36:15;;;;;;;;;35.00;32.67;13.00;99.90;;;;;;4686848;30;8867;-62
2022/04/28 00:38:40;;;;;;;;;30.00;29.67;12.90;99.90;;;;;;4686796;30;8808;-62
2022/04/28 00:41:07;;;;;;;;;35.67;32.67;12.70;99.90;;;;;;4686708;30;8812;-62
2022/04/28 00:43:33;;;;;;;;;32.00;32.00;12.60;99.90;;;;;;4686436;30;8831;-61
2022/04/28 00:45:59;;;;;;;;;29.67;29.33;12.70;99.90;;;;;;4686631;30;9507;-62
2022/04/28 00:51:12;;;;;;;;;34.00;32.00;12.40;99.90;;;;;;4686425;30;8796;-60
2022/04/28 00:53:51;;;;;;;;;36.67;32.33;12.50;99.90;;;;;;4686465;30;8880;-61
2022/04/28 00:56:17;;;;;;;;;33.25;32.50;12.70;99.90;;;;;;4686214;30;9523;-61
2022/04/28 00:58:43;;;;;;;;;32.33;31.67;12.80;99.90;;;;;;4686215;30;9013;-59
2022/04/28 01:01:09;;;;;;;;;32.67;32.00;12.60;99.90;;;;;;4686074;30;8844;-61
2022/04/28 01:03:35;;;;;;;;;35.67;33.67;12.40;99.90;;;;;;4686349;30;8832;-62
2022/04/28 01:06:02;;;;;;;;;33.00;31.67;12.50;99.90;;;;;;4686103;30;8903;-60
2022/04/28 01:08:28;;;;;;;;;36.00;32.00;12.60;99.90;;;;;;4686018;30;8836;-60
2022/04/28 01:10:58;;;;;;;;;30.75;29.00;12.50;99.90;;;;;;4685472;30;8832;-61
2022/04/28 01:13:24;;;;;;;;;29.75;28.50;12.50;99.90;;;;;;4699303;30;9577;-62
2022/04/28 01:15:50;;;;;;;;;29.25;29.25;12.60;99.90;;;;;;4685926;30;8824;-62
2022/04/28 01:18:18;;;;;;;;;24.33;23.33;12.50;99.90;;;;;;4686123;30;8859;-61
2022/04/28 01:20:43;;;;;;;;;31.75;29.00;12.40;99.90;;;;;;4685845;30;8807;-60
2022/04/28 01:23:11;;;;;;;;;33.75;31.50;12.60;99.90;;;;;;4686062;30;8899;-62
2022/04/28 01:25:37;;;;;;;;;32.75;30.00;12.70;99.90;;;;;;4685802;30;8836;-61
2022/04/28 01:28:03;;;;;;;;;32.00;32.00;12.70;99.90;;;;;;4693418;30;9465;-61
2022/04/28 01:30:28;;;;;;;;;30.00;30.00;12.90;99.90;;;;;;4703013;30;8834;-59
2022/04/28 01:32:57;;;;;;;;;34.50;31.50;12.80;99.90;;;;;;4703012;30;8884;-60
2022/04/28 01:35:23;;;;;;;;;34.75;32.50;12.70;99.90;;;;;;4702787;30;8825;-61
2022/04/28 01:37:49;;;;;;;;;33.75;31.75;12.80;99.90;;;;;;4698255;30;8852;-60
2022/04/28 01:40:16;;;;;;;;;31.33;30.00;13.20;99.90;;;;;;4685229;30;8954;-60
2022/04/28 01:42:43;;;;;;;;;35.33;33.33;13.10;99.90;;;;;;4685719;30;8938;-61
2022/04/28 01:45:09;;;;;;;;;33.00;31.00;13.10;99.90;;;;;;4685501;30;8831;-61
2022/04/28 01:47:36;;;;;;;;;28.33;28.33;13.10;99.90;;;;;;4685653;30;9499;-61
2022/04/28 01:50:03;;;;;;;;;35.00;32.33;13.50;99.90;;;;;;4685455;30;8828;-61
2022/04/28 01:55:14;;;;;;;;;25.00;25.00;13.00;99.90;;;;;;4685226;30;8860;-61
2022/04/28 01:57:40;;;;;;;;;33.00;32.33;12.40;99.90;;;;;;4685508;30;8964;-61
2022/04/28 02:00:08;;;;;;;;;34.00;32.00;12.60;99.90;;;;;;4684206;30;8839;-62
2022/04/28 02:02:35;;;;;;;;;31.75;29.25;12.90;99.90;;;;;;4685113;30;8832;-62
2022/04/28 02:05:05;;;;;;;;;35.00;31.33;12.90;99.90;;;;;;4685070;30;8832;-61
2022/04/28 02:07:30;;;;;;;;;33.67;31.00;12.60;99.90;;;;;;4685404;30;9601;-60
2022/04/28 02:09:58;;;;;;;;;30.75;28.75;12.60;99.90;;;;;;4685048;30;8836;-62
2022/04/28 02:12:25;;;;;;;;;30.67;29.67;12.70;99.90;;;;;;4684943;30;8835;-61
2022/04/28 02:14:51;;;;;;;;;33.00;31.67;12.70;99.90;;;;;;4684988;30;9045;-61
2022/04/28 02:17:18;;;;;;;;;37.00;32.50;12.50;99.90;;;;;;4685018;30;8877;-61
2022/04/28 02:19:44;;;;;;;;;34.67;30.67;12.40;99.90;;;;;;4685148;30;8812;-59
2022/04/28 02:22:10;;;;;;;;;33.33;32.33;12.50;99.90;;;;;;4684849;30;8836;-61
2022/04/28 02:24:36;;;;;;;;;36.67;34.00;12.90;99.90;;;;;;4684883;30;8820;-60
2022/04/28 02:27:01;;;;;;;;;35.25;31.25;12.70;99.90;;;;;;4684943;30;9037;-61
2022/04/28 02:29:27;;;;;;;;;32.33;31.33;12.60;99.90;;;;;;4685004;30;8817;-61
2022/04/28 02:31:53;;;;;;;;;38.75;33.25;12.60;99.90;;;;;;4684688;30;8921;-61
2022/04/28 02:34:18;;;;;;;;;36.25;33.00;12.30;99.90;;;;;;4684794;30;8852;-60
2022/04/28 02:36:44;;;;;;;;;36.75;35.00;12.30;99.90;;;;;;4684864;30;8870;-60
2022/04/28 02:39:10;;;;;;;;;38.75;35.25;12.30;99.90;;;;;;4684828;30;9536;-60
2022/04/28 02:41:37;;;;;;;;;39.00;36.00;12.50;99.90;;;;;;4684543;30;8946;-61
2022/04/28 02:44:03;;;;;;;;;39.00;34.25;12.80;99.90;;;;;;4684502;30;8824;-61
2022/04/28 02:46:29;;;;;;;;;37.75;33.75;13.00;99.90;;;;;;4684396;30;8816;-61
2022/04/28 02:48:55;;;;;;;;;32.33;31.33;12.50;99.90;;;;;;4684468;30;8836;-61
2022/04/28 02:51:21;;;;;;;;;33.75;30.50;12.50;99.90;;;;;;4684643;30;8844;-62
2022/04/28 02:53:47;;;;;;;;;34.00;33.25;12.50;99.90;;;;;;4684273;30;8872;-61
2022/04/28 02:56:12;;;;;;;;;36.25;33.00;12.40;99.90;;;;;;4684286;30;8864;-61
2022/04/28 02:58:38;;;;;;;;;37.75;32.50;12.60;99.90;;;;;;4682622;30;9491;-61
2022/04/28 03:01:04;;;;;;;;;40.00;34.50;12.20;99.90;;;;;;4684272;30;8824;-60
2022/04/28 03:03:32;;;;;;;;;30.67;30.67;12.20;99.90;;;;;;4684938;30;8848;-61
2022/04/28 03:11:27;;;;;;;;;38.75;35.25;12.70;99.90;;;;;;4701367;30;9409;-60
2022/04/28 03:13:54;;;;;;;;;33.00;31.50;12.40;99.90;;;;;;4701488;30;8852;-61
2022/04/28 03:16:20;;;;;;;;;41.25;35.50;12.50;99.90;;;;;;4701293;30;8818;-61
2022/04/28 03:18:46;;;;;;;;;41.00;33.75;12.40;99.90;;;;;;4701466;30;8814;-60
2022/04/28 03:21:13;;;;;;;;;43.75;37.50;12.20;99.90;;;;;;4701202;30;8840;-62
2022/04/28 03:23:38;;;;;;;;;38.25;34.50;12.40;99.90;;;;;;4701430;30;8833;-60
2022/04/28 03:26:04;;;;;;;;;38.75;35.50;12.30;99.90;;;;;;4701133;30;8840;-60
2022/04/28 03:28:35;;;;;;;;;41.75;37.00;12.50;99.90;;;;;;4701349;30;8837;-61
2022/04/28 03:31:02;;;;;;;;;36.00;33.50;12.60;99.90;;;;;;4700613;30;8845;-61
2022/04/28 03:33:28;;;;;;;;;38.25;32.25;12.50;99.90;;;;;;4700616;30;8976;-61
2022/04/28 03:35:54;;;;;;;;;32.67;31.33;12.50;99.90;;;;;;4701271;30;8972;-60
2022/04/28 03:38:20;;;;;;;;;37.00;33.00;12.60;99.90;;;;;;4700545;30;8849;-58
2022/04/28 03:40:45;;;;;;;;;36.25;34.00;12.80;99.90;;;;;;4701259;30;8845;-61
2022/04/28 03:43:12;;;;;;;;;36.00;33.00;12.70;99.90;;;;;;4700975;30;8988;-61
2022/04/28 03:45:38;;;;;;;;;36.50;31.50;12.80;99.90;;;;;;4701105;30;8888;-60
2022/04/28 03:48:08;;;;;;;;;34.50;33.50;12.80;99.90;;;;;;4701013;30;8832;-60
2022/04/28 03:50:34;;;;;;;;;31.00;29.67;13.00;99.90;;;;;;4701240;30;8898;-62
2022/04/28 03:53:00;;;;;;;;;34.50;31.25;12.70;99.90;;;;;;4700923;30;8971;-61
2022/04/28 03:55:27;;;;;;;;;34.25;31.75;12.90;99.90;;;;;;4700744;30;9043;-61
2022/04/28 03:57:53;;;;;;;;;32.33;31.67;12.80;99.90;;;;;;4701191;30;9469;-62
2022/04/28 04:00:20;;;;;;;;;35.67;33.67;12.80;99.90;;;;;;4700830;30;8822;-61
2022/04/28 04:02:46;;;;;;;;;32.33;30.00;12.20;99.90;;;;;;4701119;30;8884;-62
2022/04/28 04:05:12;;;;;;;;;34.33;33.00;12.20;99.90;;;;;;4701045;30;8872;-61
2022/04/28 04:07:42;;;;;;;;;33.67;32.67;12.40;99.90;;;;;;4701188;30;8857;-62
2022/04/28 04:10:10;;;;;;;;;37.00;33.50;12.40;99.90;;;;;;4700832;30;8837;-62
2022/04/28 04:12:37;;;;;;;;;32.00;30.00;12.80;99.90;;;;;;4700868;30;8830;-61
2022/04/28 04:15:04;;;;;;;;;31.67;30.00;12.60;99.90;;;;;;4700989;30;8837;-62
2022/04/28 04:17:30;;;;;;;;;32.67;31.33;12.60;99.90;;;;;;4700639;30;8845;-62
2022/04/28 04:19:55;;;;;;;;;34.00;33.00;12.50;99.90;;;;;;4700604;30;8853;-61
2022/04/28 04:22:21;;;;;;;;;35.75;31.25;12.70;99.90;;;;;;4700857;30;8857;-60
2022/04/28 04:24:47;;;;;;;;;34.75;33.00;12.90;99.90;;;;;;4700991;30;8826;-61
2022/04/28 04:27:14;;;;;;;;;34.33;30.33;12.90;99.90;;;;;;4700662;30;8832;-61
2022/04/28 04:29:40;;;;;;;;;36.67;32.33;12.80;99.90;;;;;;4700933;30;8852;-61
2022/04/28 04:32:18;;;;;;;;;35.00;32.00;12.90;99.90;;;;;;4700666;30;8813;-61
2022/04/28 04:34:50;;;;;;;;;33.33;31.67;12.60;99.90;;;;;;4700609;30;8883;-61
2022/04/28 04:37:15;;;;;;;;;34.00;30.33;12.60;99.90;;;;;;4700913;30;8857;-63
2022/04/28 04:39:41;;;;;;;;;34.33;31.33;12.60;99.90;;;;;;4699750;30;8861;-60
2022/04/28 04:42:08;;;;;;;;;36.33;34.33;12.80;99.90;;;;;;4699941;30;8849;-58
2022/04/28 04:44:34;;;;;;;;;32.00;32.00;12.70;99.90;;;;;;4700895;30;8841;-59
2022/04/28 04:47:00;;;;;;;;;34.00;33.00;12.60;99.90;;;;;;4703905;30;8826;-65
2022/04/28 04:49:26;;;;;;;;;26.67;24.67;12.90;99.90;;;;;;4703364;30;8850;-59
2022/04/28 04:51:52;;;;;;;;;37.33;32.67;12.70;99.90;;;;;;4703975;30;8868;-60
2022/04/28 04:54:18;;;;;;;;;30.33;29.00;12.70;99.90;;;;;;4703718;30;8869;-59
2022/04/28 04:56:43;;;;;;;;;34.67;32.00;12.90;99.90;;;;;;4703263;30;8873;-61
2022/04/28 04:59:09;;;;;;;;;35.33;32.33;12.70;99.90;;;;;;4703722;30;8813;-63
2022/04/28 05:01:35;;;;;;;;;35.67;32.00;12.80;99.90;;;;;;4703378;30;8845;-63
2022/04/28 05:04:01;;;;;;;;;30.67;29.00;13.10;99.90;;;;;;4703367;30;8854;-62
2022/04/28 05:06:27;;;;;;;;;31.33;28.00;13.40;99.90;;;;;;4703121;30;8841;-60
2022/04/28 05:08:53;;;;;;;;;36.00;32.00;13.00;99.90;;;;;;4703139;30;8849;-61
2022/04/28 05:11:18;;;;;;;;;35.75;33.00;12.90;99.90;;;;;;4703204;30;8834;-61
2022/04/28 05:13:44;;;;;;;;;34.33;31.00;13.30;99.90;;;;;;4702866;30;8881;-62
2022/04/28 05:16:10;;;;;;;;;34.00;32.67;13.00;99.90;;;;;;4702746;30;8854;-62
2022/04/28 05:18:36;;;;;;;;;28.33;28.33;13.10;99.90;;;;;;4702758;30;8833;-63
2022/04/28 05:21:03;;;;;;;;;33.33;31.33;13.20;99.90;;;;;;4703053;30;8813;-61
2022/04/28 05:23:29;;;;;;;;;31.67;31.67;12.90;99.90;;;;;;4703062;30;8919;-61
2022/04/28 05:25:55;;;;;;;;;38.00;35.00;12.70;99.90;;;;;;4702982;30;8944;-61
2022/04/28 05:28:21;;;;;;;;;32.67;30.67;12.80;99.90;;;;;;4703250;30;8940;-61
2022/04/28 05:30:47;;;;;;;;;32.75;32.00;13.00;99.90;;;;;;4703209;30;8840;-61
2022/04/28 05:33:13;;;;;;;;;38.00;33.67;13.20;99.90;;;;;;4703093;30;8857;-62
2022/04/28 05:35:41;;;;;;;;;22.67;22.67;13.20;99.90;;;;;;4702052;30;9446;-61
2022/04/28 05:38:10;;;;;;;;;33.00;28.67;12.80;99.90;;;;;;4703064;30;8826;-61
2022/04/28 05:40:39;;;;;;;;;32.00;28.67;12.80;99.90;;;;;;4702742;30;8892;-60
2022/04/28 05:45:51;;;;;;;;;38.50;32.75;12.90;99.90;;;;;;4702636;30;8789;-61
2022/04/28 05:48:18;;;;;;;;;30.50;29.75;12.80;99.90;;;;;;4702179;30;8898;-62
2022/04/28 05:50:45;;;;;;;;;36.33;32.00;12.80;99.90;;;;;;4702603;30;8853;-61
2022/04/28 05:53:11;;;;;;;;;36.00;32.67;13.00;99.90;;;;;;4702806;30;8875;-61
2022/04/28 05:55:38;;;;;;;;;31.00;30.00;13.20;99.90;;;;;;4702136;30;8853;-62
2022/04/28 05:58:04;;;;;;;;;34.00;32.00;13.00;99.90;;;;;;4702456;30;8825;-61
2022/04/28 06:00:31;;;;;;;;;37.25;33.00;12.80;99.90;;;;;;4702525;30;8832;-61
2022/04/28 06:02:57;;;;;;;;;27.67;23.33;13.00;99.90;;;;;;4702115;30;8851;-61
2022/04/28 06:05:23;;;;;;;;;35.33;31.00;13.40;99.90;;;;;;4702453;30;8899;-61
2022/04/28 06:07:49;;;;;;;;;39.75;35.50;12.70;99.90;;;;;;4702549;30;8805;-62
2022/04/28 06:10:15;;;;;;;;;37.00;34.00;12.50;99.90;;;;;;4702330;30;8810;-61
2022/04/28 06:12:42;;;;;;;;;28.00;27.00;12.50;99.90;;;;;;4702502;30;8925;-61
2022/04/28 06:15:08;;;;;;;;;40.50;34.75;12.50;99.90;;;;;;4702394;30;8802;-61
2022/04/28 06:17:35;;;;;;;;;38.25;34.75;12.60;99.90;;;;;;4701480;30;8833;-62
2022/04/28 06:20:01;;;;;;;;;32.67;31.00;12.60;99.90;;;;;;4702210;30;8835;-62
2022/04/28 06:22:27;;;;;;;;;34.25;32.25;12.80;99.90;;;;;;4702293;30;8821;-61
2022/04/28 06:24:58;;;;;;;;;34.67;32.67;12.80;99.90;;;;;;4702097;30;9542;-60
2022/04/28 06:27:24;;;;;;;;;35.33;32.00;12.90;99.90;;;;;;4701925;30;9460;-66
2022/04/28 06:29:50;;;;;;;;;28.67;27.33;12.80;99.90;;;;;;4702203;30;8814;-63
2022/04/28 06:32:16;;;;;;;;;38.00;32.75;12.90;99.90;;;;;;4701629;30;8825;-62
2022/04/28 06:34:43;;;;;;;;;34.25;31.75;12.80;99.90;;;;;;4701744;30;8873;-61
2022/04/28 06:37:09;;;;;;;;;40.25;33.75;12.80;99.90;;;;;;4702243;30;8853;-62
2022/04/28 06:39:35;;;;;;;;;32.67;32.33;12.80;99.90;;;;;;4702093;30;8814;-62
2022/04/28 06:42:00;;;;;;;;;34.25;32.25;13.00;99.90;;;;;;4701744;30;9492;-61
2022/04/28 06:44:26;;;;;;;;;35.00;32.00;13.20;99.90;;;;;;4701889;30;8836;-61
2022/04/28 06:46:52;;;;;;;;;33.00;31.00;13.30;99.90;;;;;;4701224;30;8848;-64
2022/04/28 06:49:17;;;;;;;;;38.75;34.00;13.40;99.90;;;;;;4701516;30;8829;-61
2022/04/28 06:51:43;;;;;;;;;37.33;33.00;13.30;99.90;;;;;;4715288;30;8818;-62
2022/04/28 06:54:09;;;;;;;;;31.67;28.33;13.10;99.90;;;;;;4701575;30;9648;-60
2022/04/28 06:56:35;;;;;;;;;36.75;32.25;13.40;99.90;;;;;;4701164;30;8869;-62
2022/04/28 06:59:01;;;;;;;;;33.00;30.67;13.40;99.90;;;;;;4701396;30;8934;-64
2022/04/28 07:01:27;;;;;;;;;33.00;32.00;13.20;99.90;;;;;;4701438;30;8826;-63
2022/04/28 07:03:52;;;;;;;;;37.50;34.25;13.10;99.90;;;;;;4701510;30;8849;-64
2022/04/28 07:06:18;;;;;;;;;40.50;33.25;13.60;99.90;;;;;;4701508;30;8858;-63
2022/04/28 07:08:44;;;;;;;;;35.33;33.33;13.80;99.90;;;;;;4700720;30;8855;-61
2022/04/28 07:11:10;;;;;;;;;38.33;34.67;13.70;99.90;;;;;;4701314;30;8813;-61
2022/04/28 07:13:37;;;;;;;;;41.50;35.25;13.60;99.90;;;;;;4701245;30;8857;-60
2022/04/28 07:16:04;;;;;;;;;36.33;34.00;13.50;99.90;;;;;;4701474;30;8825;-60
2022/04/28 07:18:30;;;;;;;;;38.00;33.00;13.40;99.90;;;;;;4701185;30;8892;-61
2022/04/28 07:20:56;;;;;;;;;33.67;31.00;13.30;99.90;;;;;;4701222;30;8920;-63
2022/04/28 07:23:22;;;;;;;;;33.33;31.33;13.60;99.90;;;;;;4701411;30;8819;-63
2022/04/28 07:25:48;;;;;;;;;40.00;33.00;13.80;99.90;;;;;;4701351;30;8806;-61
2022/04/28 07:28:14;;;;;;;;;37.25;33.50;13.60;99.90;;;;;;4701095;30;8822;-61
2022/04/28 07:30:40;;;;;;;;;39.00;34.00;13.70;99.90;;;;;;4714660;30;9508;-62
2022/04/28 07:33:08;;;;;;;;;34.00;31.67;13.90;99.90;;;;;;4700953;30;8957;-61
2022/04/28 07:35:34;;;;;;;;;39.00;34.00;13.70;99.90;;;;;;4701136;30;8817;-63
2022/04/28 07:38:00;;;;;;;;;35.67;33.33;13.80;99.90;;;;;;4701075;30;9504;-61
2022/04/28 07:40:26;;;;;;;;;36.00;34.00;13.70;99.90;;;;;;4701181;30;8813;-61
2022/04/28 07:42:52;;;;;;;;;37.00;34.00;14.00;99.90;;;;;;4700789;30;8826;-62
2022/04/28 07:45:18;;;;;;;;;35.33;31.67;14.30;99.90;;;;;;4701098;30;9480;-62
2022/04/28 07:47:43;;;;;;;;;39.00;34.00;14.20;99.90;;;;;;4701101;30;8802;-61
2022/04/28 07:50:10;;;;;;;;;42.00;35.67;14.30;99.90;;;;;;4701171;30;8809;-61
2022/04/28 07:52:38;;;;;;;;;35.00;32.67;13.90;99.90;;;;;;4700836;30;8893;-61
2022/04/28 07:55:05;;;;;;;;;33.50;31.50;13.70;99.90;;;;;;4700735;30;8806;-63
2022/04/28 07:57:31;;;;;;;;;34.00;31.33;13.50;99.90;;;;;;4700882;30;9413;-64
2022/04/28 07:59:57;;;;;;;;;35.33;32.67;13.70;99.90;;;;;;4700804;30;8911;-62
2022/04/28 08:02:23;;;;;;;;;40.33;35.67;13.80;99.90;;;;;;4700645;30;8821;-61
2022/04/28 08:04:49;;;;;;;;;39.33;35.67;14.00;99.90;;;;;;4700822;30;8813;-64
2022/04/28 08:07:15;;;;;;;;;39.25;34.50;13.90;99.90;;;;;;4700698;30;8853;-62
2022/04/28 08:09:41;;;;;;;;;41.00;34.67;13.80;99.90;;;;;;4700837;30;8821;-64
2022/04/28 08:12:07;;;;;;;;;39.67;34.67;13.90;99.90;;;;;;4700942;30;8845;-62
2022/04/28 08:14:33;;;;;;;;;41.00;34.67;14.00;99.90;;;;;;4700618;30;9461;-64
2022/04/28 08:16:59;;;;;;;;;41.67;34.67;14.20;99.90;;;;;;4700731;30;8814;-61
2022/04/28 08:19:25;;;;;;;;;43.33;36.33;14.20;99.90;;;;;;4702208;30;8906;-62
2022/04/28 08:21:51;;;;;;;;;37.67;33.33;14.10;99.90;;;;;;4704039;30;8920;-62
2022/04/28 08:24:17;;;;;;;;;36.67;33.67;14.40;99.90;;;;;;4703903;30;8837;-64
2022/04/28 08:26:43;;;;;;;;;37.33;34.67;14.30;99.90;;;;;;4704215;30;8817;-60
2022/04/28 08:29:09;;;;;;;;;39.67;35.33;14.10;99.90;;;;;;4703845;30;8857;-60
2022/04/28 08:31:43;;;;;;;;;39.33;35.33;14.30;99.90;;;;;;4704034;30;8830;-64
2022/04/28 08:34:13;;;;;;;;;44.00;35.67;14.20;99.90;;;;;;4704107;30;8880;-62
2022/04/28 08:36:40;;;;;;;;;35.00;33.33;14.50;99.90;;;;;;4703879;30;9485;-64
2022/04/28 08:39:06;;;;;;;;;43.00;36.00;14.40;99.90;;;;;;4703645;30;8925;-62
2022/04/28 08:41:36;;;;;;;;;34.33;31.67;14.40;99.90;;;;;;4703692;30;8951;-61
2022/04/28 08:44:05;;;;;;;;;40.00;34.67;14.40;99.90;;;;;;4703969;30;8821;-62
2022/04/28 08:49:16;;;;;;;;;36.00;32.67;14.40;99.90;;;;;;4703689;30;8797;-62
2022/04/28 08:51:43;;;;;;;;;38.50;34.00;14.40;99.90;;;;;;4703547;30;8971;-61
2022/04/28 08:54:10;;;;;;;;;42.75;37.00;14.50;96.90;;;;;;4703422;30;8861;-62
2022/04/28 08:56:36;;;;;;;;;41.00;35.75;14.20;96.50;;;;;;4703180;30;8853;-61
2022/04/28 08:59:02;;;;;;;;;38.00;34.25;14.40;94.00;;;;;;4716899;30;8861;-61
2022/04/28 09:01:29;;;;;;;;;37.00;34.00;14.20;92.70;;;;;;4703487;30;8801;-61
2022/04/28 09:04:10;;;;;;;;;36.75;33.00;13.90;94.60;;;;;;4703621;30;8897;-62
2022/04/28 09:06:37;;;;;;;;;39.25;34.75;13.80;96.20;;;;;;4703429;30;8865;-62
2022/04/28 09:09:09;;;;;;;;;38.00;32.75;14.00;93.70;;;;;;4703490;30;8813;-61
2022/04/28 09:11:37;;;;;;;;;40.00;35.50;14.20;92.60;;;;;;4703597;30;8801;-62
2022/04/28 09:14:11;;;;;;;;;38.00;34.25;14.20;91.00;;;;;;4703204;30;8861;-62
2022/04/28 09:16:41;;;;;;;;;43.00;37.00;14.20;91.40;;;;;;4703244;30;8833;-62
2022/04/28 09:19:07;;;;;;;;;35.75;33.25;14.20;92.00;;;;;;4703390;30;8825;-60
2022/04/28 09:21:34;;;;;;;;;37.00;34.25;14.30;91.00;;;;;;4703341;30;9612;-63
2022/04/28 09:24:01;;;;;;;;;34.33;31.67;14.50;91.50;;;;;;4703129;30;8852;-62
2022/04/28 09:26:27;;;;;;;;;39.75;35.25;14.50;90.00;;;;;;4703068;30;8814;-62
2022/04/28 09:28:54;;;;;;;;;37.50;34.50;14.20;91.90;;;;;;4703043;30;8945;-62
2022/04/28 09:31:21;;;;;;;;;34.25;33.00;14.50;90.10;;;;;;4702465;30;8813;-62
2022/04/28 09:33:50;;;;;;;;;39.25;35.00;14.00;92.60;;;;;;4702797;30;8877;-62
2022/04/28 09:36:16;;;;;;;;;43.00;36.75;13.60;95.20;;;;;;4703087;30;9521;-62
2022/04/28 09:38:42;;;;;;;;;36.67;33.33;13.70;96.20;;;;;;4702851;30;8893;-62
2022/04/28 09:43:55;;;;;;;;;37.50;33.75;13.70;95.80;;;;;;4702774;30;8810;-60
2022/04/28 09:46:25;;;;;;;;;44.00;37.25;13.70;97.00;;;;;;4702772;30;8849;-61
2022/04/28 09:48:52;;;;;;;;;45.00;36.50;13.50;99.90;;;;;;4702692;30;8830;-61
2022/04/28 09:51:25;;;;;;;;;45.25;36.50;13.80;99.90;;;;;;4702626;30;8826;-64
2022/04/28 09:53:51;;;;;;;;;41.75;34.00;13.90;99.70;;;;;;4702739;30;9599;-62
2022/04/28 09:56:24;;;;;;;;;38.75;35.25;14.00;96.50;;;;;;4702540;30;8870;-61
2022/04/28 09:58:51;;;;;;;;;42.50;37.00;14.10;94.60;;;;;;4702760;30;8845;-63
2022/04/28 10:01:18;;;;;;;;;43.00;37.75;14.00;95.80;;;;;;4702445;30;8825;-63
2022/04/28 10:03:44;;;;;;;;;37.50;35.00;14.30;94.20;;;;;;4702753;30;8944;-62
2022/04/28 10:06:11;;;;;;;;;39.00;33.75;14.30;94.10;;;;;;4702725;30;8975;-62
2022/04/28 10:08:38;;;;;;;;;46.25;39.25;14.20;94.60;;;;;;4702374;30;8825;-60
2022/04/28 10:11:11;;;;;;;;;41.25;36.00;13.80;99.60;;;;;;4702514;30;8821;-60
2022/04/28 10:13:39;;;;;;;;;46.50;38.00;14.10;97.70;;;;;;4702174;30;8864;-60
2022/04/28 10:16:11;;;;;;;;;41.75;36.50;14.00;99.30;;;;;;4702052;30;8829;-61
2022/04/28 10:18:47;;;;;;;;;43.00;35.50;14.00;98.60;;;;;;4702437;30;8838;-62
2022/04/28 10:21:20;;;;;;;;;43.00;37.00;14.10;99.30;;;;;;4702401;30;8932;-63
2022/04/28 10:32:22;;;;;;;;;41.75;36.75;13.60;99.90;;;;;;4701996;30;8809;-60
2022/04/28 10:35:06;;;;;;;;;36.00;32.75;13.60;99.90;;;;;;4702128;30;8885;-61
2022/04/28 10:37:34;;;;;;;;;41.25;36.75;13.90;99.90;;;;;;4702466;30;8983;-63
2022/04/28 10:40:00;;;;;;;;;38.50;34.00;14.10;99.90;;;;;;4701804;30;8813;-62
2022/04/28 10:42:26;;;;;;;;;41.75;37.00;14.20;99.90;;;;;;4701124;30;8840;-63
2022/04/28 10:44:54;;;;;;;;;44.25;36.75;13.90;99.90;;;;;;4701911;30;8825;-60
2022/04/28 10:47:30;;;;;;;;;48.50;38.75;14.20;99.90;;;;;;4701757;30;8937;-62
2022/04/28 10:49:56;;;;;;;;;50.50;42.00;14.80;99.90;;;;;;4701705;30;8919;-62
2022/04/28 10:52:23;;;;;;;;;42.75;36.00;14.80;99.40;;;;;;4701611;30;8936;-62
2022/04/28 10:55:01;;;;;;;;;43.50;37.50;14.50;99.90;;;;;;4701743;30;8951;-65
2022/04/28 10:57:32;;;;;;;;;40.50;35.50;14.50;98.20;;;;;;4701742;30;8813;-63
2022/04/28 11:00:03;;;;;;;;;37.25;33.25;14.70;97.40;;;;;;4701489;30;8856;-62
2022/04/28 11:02:28;;;;;;;;;41.50;36.75;14.60;96.10;;;;;;4701676;30;8813;-62
2022/04/28 11:05:04;;;;;;;;;46.00;38.25;14.10;99.90;;;;;;4701414;30;8932;-62
2022/04/28 11:07:31;;;;;;;;;35.50;34.00;14.00;99.90;;;;;;4701350;30;8857;-62
2022/04/28 11:10:04;;;;;;;;;46.00;38.00;13.80;99.90;;;;;;4701012;30;8862;-61
2022/04/28 11:12:37;;;;;;;;;40.50;35.75;13.90;99.90;;;;;;4701592;30;8829;-60
2022/04/28 11:15:13;;;;;;;;;42.75;37.50;13.80;99.90;;;;;;4701554;30;8841;-61
2022/04/28 11:17:44;;;;;;;;;46.00;37.00;13.80;99.90;;;;;;4701316;30;8863;-62
2022/04/28 11:20:15;;;;;;;;;48.25;40.25;13.70;99.90;;;;;;4700847;30;8943;-61
2022/04/28 11:22:48;;;;;;;;;45.50;39.00;13.40;99.90;;;;;;4701483;30;8864;-61
2022/04/28 11:25:16;;;;;;;;;52.25;43.75;13.40;99.90;;;;;;4701182;30;8849;-61
2022/04/28 11:27:46;;;;;;;;;42.75;37.50;13.60;99.90;;;;;;4701057;30;8966;-61
2022/04/28 11:30:20;;;;;;;;;50.00;40.00;13.50;99.90;;;;;;4700724;30;9554;-64
2022/04/28 11:32:52;;;;;;;;;44.75;38.00;13.80;99.90;;;;;;4697433;30;8845;-62
2022/04/28 11:35:19;;;;;;;;;53.00;43.50;14.10;99.90;;;;;;4699287;30;8826;-61
2022/04/28 11:37:48;;;;;;;;;35.00;33.75;13.90;99.90;;;;;;4699939;30;8849;-63
2022/04/28 11:40:16;;;;;;;;;45.25;38.50;13.70;99.90;;;;;;4699773;30;8923;-61
2022/04/28 11:42:42;;;;;;;;;49.50;40.00;13.50;99.90;;;;;;4699067;30;8857;-61
2022/04/28 11:45:09;;;;;;;;;41.00;36.00;13.70;99.90;;;;;;4698179;30;8857;-61
2022/04/28 11:47:43;;;;;;;;;35.75;34.00;13.60;99.90;;;;;;4699068;30;8806;-61
2022/04/28 11:50:18;;;;;;;;;37.50;34.00;13.40;99.90;;;;;;4697424;30;9539;-61
2022/04/28 11:52:44;;;;;;;;;37.00;33.50;13.60;99.90;;;;;;4692947;30;8900;-60
2022/04/28 11:55:12;;;;;;;;;34.75;31.25;13.60;99.90;;;;;;4701904;30;8814;-63
2022/04/28 11:57:41;;;;;;;;;37.50;33.00;13.90;99.90;;;;;;4701939;30;8841;-61
2022/04/28 12:00:12;;;;;;;;;39.25;35.00;14.00;99.90;;;;;;4702348;30;8830;-60
2022/04/28 12:02:38;;;;;;;;;59.25;47.25;14.40;99.90;;;;;;4701988;30;8789;-61
2022/04/28 12:05:16;;;;;;;;;40.75;36.00;14.70;99.90;;;;;;4702848;30;8908;-62
2022/04/28 12:07:52;;;;;;;;;36.00;33.00;14.50;99.90;;;;;;4701425;30;8854;-62
2022/04/28 12:16:14;;;;;;;;;46.25;38.75;15.00;99.90;;;;;;4703059;30;8793;-62
2022/04/28 12:21:36;;;;;;;;;41.50;35.75;14.50;99.90;;;;;;4702580;30;8798;-60
2022/04/28 12:24:18;;;;;;;;;40.75;36.00;14.40;99.90;;;;;;4700791;30;8853;-58
2022/04/28 12:26:46;;;;;;;;;43.50;37.00;14.00;99.90;;;;;;4701085;30;8813;-63
2022/04/28 12:29:13;;;;;;;;;48.25;39.00;14.30;99.90;;;;;;4702866;30;8830;-60
2022/04/28 12:31:40;;;;;;;;;46.50;39.75;14.40;99.90;;;;;;4700180;30;8849;-60
2022/04/28 12:34:32;;;;;;;;;44.75;36.50;14.20;99.90;;;;;;4702518;30;8845;-61
2022/04/28 12:37:00;;;;;;;;;48.00;40.50;14.40;99.90;;;;;;4698534;30;8960;-60
2022/04/28 12:39:26;;;;;;;;;41.75;36.75;14.30;99.90;;;;;;4696126;30;8858;-62
2022/04/28 12:41:53;;;;;;;;;42.50;36.00;14.30;99.90;;;;;;4702099;30;8856;-60
2022/04/28 12:44:20;;;;;;;;;42.25;36.00;14.20;99.90;;;;;;4699177;30;8833;-57
2022/04/28 12:46:46;;;;;;;;;43.50;37.50;14.10;99.90;;;;;;4703368;30;8829;-61
2022/04/28 12:49:13;;;;;;;;;43.00;36.75;14.30;99.90;;;;;;4703597;30;8860;-61
2022/04/28 12:51:42;;;;;;;;;42.00;36.75;14.40;99.90;;;;;;4703513;30;8907;-62
2022/04/28 12:54:17;;;;;;;;;46.50;37.50;14.20;99.90;;;;;;4702938;30;8892;-60
2022/04/28 12:56:45;;;;;;;;;39.00;34.50;14.30;99.90;;;;;;4703379;30;8869;-60
2022/04/28 12:59:14;;;;;;;;;43.50;35.50;14.40;99.90;;;;;;4703670;30;9265;-60
2022/04/28 13:01:41;;;;;;;;;43.75;37.00;14.30;99.90;;;;;;4703619;30;8818;-61
2022/04/28 13:04:09;;;;;;;;;39.00;33.33;14.40;99.90;;;;;;4703535;30;8939;-59
2022/04/28 13:06:38;;;;;;;;;46.25;37.75;14.70;99.90;;;;;;4701848;30;8854;-59
2022/04/28 13:09:07;;;;;;;;;38.75;34.00;14.60;99.90;;;;;;4698126;30;8830;-59
2022/04/28 13:11:36;;;;;;;;;36.75;31.00;14.50;99.90;;;;;;4703414;30;8880;-60
2022/04/28 13:14:04;;;;;;;;;41.50;36.50;14.20;99.90;;;;;;4703272;30;8896;-61